sensor_id;sensor_type;location;lat;lon;timestamp;P1;durP1;ratioP1;P2;durP2;ratioP2
773;SDS011;370;48.810;9.150;2022-09-09T00:00:15;2.25;;;0.90;;
773;SDS011;370;48.810;9.150;2022-09-09T00:02:44;1.03;;;0.70;;
773;SDS011;370;48.810;9.150;2022-09-09T00:05:23;0.93;;;0.82;;
773;SDS011;370;48.810;9.150;2022-09-09T00:07:58;0.63;;;0.50;;
773;SDS011;370;48.810;9.150;2022-09-09T00:10:29;0.70;;;0.60;;
773;SDS011;370;48.810;9.150;2022-09-09T00:13:01;1.33;;;0.90;;
773;SDS011;370;48.810;9.150;2022-09-09T00:15:38;4.85;;;0.77;;
773;SDS011;370;48.810;9.150;2022-09-09T00:18:15;0.73;;;0.68;;
773;SDS011;370;48.810;9.150;2022-09-09T00:20:49;1.58;;;1.00;;
773;SDS011;370;48.810;9.150;2022-09-09T00:23:25;1.03;;;0.73;;
773;SDS011;370;48.810;9.150;2022-09-09T00:25:57;0.77;;;0.75;;
773;SDS011;370;48.810;9.150;2022-09-09T00:28:30;1.87;;;1.13;;
773;SDS011;370;48.810;9.150;2022-09-09T00:31:07;3.97;;;0.67;;
773;SDS011;370;48.810;9.150;2022-09-09T00:33:38;0.70;;;0.70;;
773;SDS011;370;48.810;9.150;2022-09-09T00:36:09;1.20;;;0.70;;
773;SDS011;370;48.810;9.150;2022-09-09T00:38:41;0.65;;;0.63;;
773;SDS011;370;48.810;9.150;2022-09-09T00:41:11;1.90;;;0.77;;
773;SDS011;370;48.810;9.150;2022-09-09T00:43:46;12.10;;;1.30;;
773;SDS011;370;48.810;9.150;2022-09-09T00:46:26;0.83;;;0.73;;
773;SDS011;370;48.810;9.150;2022-09-09T00:49:07;7.30;;;1.10;;
773;SDS011;370;48.810;9.150;2022-09-09T00:51:44;2.80;;;0.70;;
773;SDS011;370;48.810;9.150;2022-09-09T00:54:30;1.57;;;0.67;;
773;SDS011;370;48.810;9.150;2022-09-09T00:57:21;1.45;;;0.90;;
773;SDS011;370;48.810;9.150;2022-09-09T00:59:55;2.87;;;0.90;;
773;SDS011;370;48.810;9.150;2022-09-09T01:02:31;3.40;;;1.30;;
773;SDS011;370;48.810;9.150;2022-09-09T01:05:07;1.65;;;0.85;;
773;SDS011;370;48.810;9.150;2022-09-09T01:07:40;2.63;;;0.90;;
773;SDS011;370;48.810;9.150;2022-09-09T01:10:15;3.80;;;0.93;;
773;SDS011;370;48.810;9.150;2022-09-09T01:12:51;1.47;;;0.80;;
773;SDS011;370;48.810;9.150;2022-09-09T01:15:24;3.30;;;0.70;;
773;SDS011;370;48.810;9.150;2022-09-09T01:17:56;3.70;;;0.77;;
773;SDS011;370;48.810;9.150;2022-09-09T01:20:28;1.00;;;0.80;;
773;SDS011;370;48.810;9.150;2022-09-09T01:23:07;1.80;;;1.00;;
773;SDS011;370;48.810;9.150;2022-09-09T01:28:45;2.70;;;0.85;;
773;SDS011;370;48.810;9.150;2022-09-09T01:31:15;2.10;;;1.13;;
773;SDS011;370;48.810;9.150;2022-09-09T01:33:44;3.63;;;1.03;;
773;SDS011;370;48.810;9.150;2022-09-09T01:36:12;3.53;;;0.80;;
773;SDS011;370;48.810;9.150;2022-09-09T01:38:43;1.80;;;1.13;;
773;SDS011;370;48.810;9.150;2022-09-09T01:41:10;1.63;;;0.87;;
773;SDS011;370;48.810;9.150;2022-09-09T01:43:38;12.17;;;0.93;;
773;SDS011;370;48.810;9.150;2022-09-09T01:46:05;2.60;;;0.90;;
773;SDS011;370;48.810;9.150;2022-09-09T01:48:32;1.37;;;0.83;;
773;SDS011;370;48.810;9.150;2022-09-09T01:50:59;4.93;;;1.23;;
773;SDS011;370;48.810;9.150;2022-09-09T01:53:26;1.07;;;0.90;;
773;SDS011;370;48.810;9.150;2022-09-09T01:55:56;2.17;;;0.90;;
773;SDS011;370;48.810;9.150;2022-09-09T01:58:32;1.23;;;0.93;;
773;SDS011;370;48.810;9.150;2022-09-09T02:01:08;3.13;;;0.90;;
773;SDS011;370;48.810;9.150;2022-09-09T02:03:44;1.60;;;0.87;;
773;SDS011;370;48.810;9.150;2022-09-09T02:06:20;0.80;;;0.70;;
773;SDS011;370;48.810;9.150;2022-09-09T02:08:55;1.20;;;0.77;;
773;SDS011;370;48.810;9.150;2022-09-09T02:11:25;2.60;;;0.80;;
773;SDS011;370;48.810;9.150;2022-09-09T02:13:54;2.20;;;1.07;;
773;SDS011;370;48.810;9.150;2022-09-09T02:16:26;0.90;;;0.80;;
773;SDS011;370;48.810;9.150;2022-09-09T02:18:57;0.60;;;0.50;;
773;SDS011;370;48.810;9.150;2022-09-09T02:21:29;6.53;;;1.17;;
773;SDS011;370;48.810;9.150;2022-09-09T02:24:01;1.80;;;1.00;;
773;SDS011;370;48.810;9.150;2022-09-09T02:26:30;2.03;;;1.05;;
773;SDS011;370;48.810;9.150;2022-09-09T02:29:01;3.15;;;0.93;;
773;SDS011;370;48.810;9.150;2022-09-09T02:31:32;2.58;;;0.90;;
773;SDS011;370;48.810;9.150;2022-09-09T02:34:02;1.65;;;1.05;;
773;SDS011;370;48.810;9.150;2022-09-09T02:36:32;1.03;;;0.70;;
773;SDS011;370;48.810;9.150;2022-09-09T02:39:00;4.00;;;0.90;;
773;SDS011;370;48.810;9.150;2022-09-09T02:41:28;0.80;;;0.70;;
773;SDS011;370;48.810;9.150;2022-09-09T02:43:59;0.80;;;0.70;;
773;SDS011;370;48.810;9.150;2022-09-09T02:46:37;0.67;;;0.60;;
773;SDS011;370;48.810;9.150;2022-09-09T02:49:19;0.70;;;0.60;;
773;SDS011;370;48.810;9.150;2022-09-09T02:51:56;0.65;;;0.60;;
773;SDS011;370;48.810;9.150;2022-09-09T02:54:28;0.67;;;0.63;;
773;SDS011;370;48.810;9.150;2022-09-09T02:56:58;0.77;;;0.67;;
773;SDS011;370;48.810;9.150;2022-09-09T02:59:29;0.77;;;0.67;;
773;SDS011;370;48.810;9.150;2022-09-09T03:01:58;0.90;;;0.73;;
773;SDS011;370;48.810;9.150;2022-09-09T03:04:26;0.87;;;0.60;;
773;SDS011;370;48.810;9.150;2022-09-09T03:06:52;0.80;;;0.80;;
773;SDS011;370;48.810;9.150;2022-09-09T03:09:19;0.68;;;0.60;;
773;SDS011;370;48.810;9.150;2022-09-09T03:11:46;0.90;;;0.70;;
773;SDS011;370;48.810;9.150;2022-09-09T03:14:14;0.95;;;0.60;;
773;SDS011;370;48.810;9.150;2022-09-09T03:16:41;1.80;;;1.05;;
773;SDS011;370;48.810;9.150;2022-09-09T03:19:09;1.38;;;0.80;;
773;SDS011;370;48.810;9.150;2022-09-09T03:21:36;0.73;;;0.63;;
773;SDS011;370;48.810;9.150;2022-09-09T03:24:03;1.40;;;0.80;;
773;SDS011;370;48.810;9.150;2022-09-09T03:26:31;1.25;;;0.77;;
773;SDS011;370;48.810;9.150;2022-09-09T03:28:58;0.70;;;0.60;;
773;SDS011;370;48.810;9.150;2022-09-09T03:31:25;1.17;;;0.90;;
773;SDS011;370;48.810;9.150;2022-09-09T03:33:55;4.90;;;0.88;;
773;SDS011;370;48.810;9.150;2022-09-09T03:36:24;1.67;;;0.75;;
773;SDS011;370;48.810;9.150;2022-09-09T03:38:53;4.03;;;0.77;;
773;SDS011;370;48.810;9.150;2022-09-09T03:41:20;1.50;;;0.65;;
773;SDS011;370;48.810;9.150;2022-09-09T03:43:48;0.60;;;0.60;;
773;SDS011;370;48.810;9.150;2022-09-09T03:46:16;2.10;;;0.80;;
773;SDS011;370;48.810;9.150;2022-09-09T03:48:42;0.70;;;0.60;;
773;SDS011;370;48.810;9.150;2022-09-09T03:51:10;1.38;;;0.68;;
773;SDS011;370;48.810;9.150;2022-09-09T03:53:38;0.80;;;0.75;;
773;SDS011;370;48.810;9.150;2022-09-09T03:56:05;1.23;;;0.70;;
773;SDS011;370;48.810;9.150;2022-09-09T03:58:33;3.42;;;0.73;;
773;SDS011;370;48.810;9.150;2022-09-09T04:01:01;2.38;;;0.60;;
773;SDS011;370;48.810;9.150;2022-09-09T04:03:30;2.88;;;0.88;;
773;SDS011;370;48.810;9.150;2022-09-09T04:05:58;0.70;;;0.60;;
773;SDS011;370;48.810;9.150;2022-09-09T04:08:28;0.80;;;0.70;;
773;SDS011;370;48.810;9.150;2022-09-09T04:10:58;1.00;;;0.70;;
773;SDS011;370;48.810;9.150;2022-09-09T04:13:27;1.95;;;0.80;;
773;SDS011;370;48.810;9.150;2022-09-09T04:15:55;0.98;;;0.88;;
773;SDS011;370;48.810;9.150;2022-09-09T04:18:23;1.67;;;0.60;;
773;SDS011;370;48.810;9.150;2022-09-09T04:20:51;1.42;;;0.90;;
773;SDS011;370;48.810;9.150;2022-09-09T04:23:19;1.23;;;0.80;;
773;SDS011;370;48.810;9.150;2022-09-09T04:25:47;1.33;;;0.73;;
773;SDS011;370;48.810;9.150;2022-09-09T04:28:16;1.23;;;0.83;;
773;SDS011;370;48.810;9.150;2022-09-09T04:30:44;1.33;;;0.57;;
773;SDS011;370;48.810;9.150;2022-09-09T04:33:11;1.20;;;0.70;;
773;SDS011;370;48.810;9.150;2022-09-09T04:35:39;4.95;;;0.98;;
773;SDS011;370;48.810;9.150;2022-09-09T04:38:11;3.85;;;0.90;;
773;SDS011;370;48.810;9.150;2022-09-09T04:40:37;1.65;;;1.08;;
773;SDS011;370;48.810;9.150;2022-09-09T04:43:08;4.40;;;0.77;;
773;SDS011;370;48.810;9.150;2022-09-09T04:45:36;0.70;;;0.60;;
773;SDS011;370;48.810;9.150;2022-09-09T04:48:05;1.63;;;1.00;;
773;SDS011;370;48.810;9.150;2022-09-09T04:50:32;0.80;;;0.70;;
773;SDS011;370;48.810;9.150;2022-09-09T04:52:59;1.88;;;0.88;;
773;SDS011;370;48.810;9.150;2022-09-09T04:55:27;1.27;;;0.70;;
773;SDS011;370;48.810;9.150;2022-09-09T04:57:55;0.70;;;0.60;;
773;SDS011;370;48.810;9.150;2022-09-09T05:00:22;1.73;;;0.70;;
773;SDS011;370;48.810;9.150;2022-09-09T05:02:50;2.20;;;0.83;;
773;SDS011;370;48.810;9.150;2022-09-09T05:05:17;1.00;;;0.73;;
773;SDS011;370;48.810;9.150;2022-09-09T05:07:44;1.25;;;0.90;;
773;SDS011;370;48.810;9.150;2022-09-09T05:10:12;1.63;;;1.13;;
773;SDS011;370;48.810;9.150;2022-09-09T05:12:42;0.70;;;0.68;;
773;SDS011;370;48.810;9.150;2022-09-09T05:15:09;2.80;;;1.00;;
773;SDS011;370;48.810;9.150;2022-09-09T05:17:36;3.27;;;1.57;;
773;SDS011;370;48.810;9.150;2022-09-09T05:20:05;1.77;;;0.70;;
773;SDS011;370;48.810;9.150;2022-09-09T05:22:32;0.77;;;0.67;;
773;SDS011;370;48.810;9.150;2022-09-09T05:24:59;3.93;;;0.80;;
773;SDS011;370;48.810;9.150;2022-09-09T05:27:26;1.20;;;0.83;;
773;SDS011;370;48.810;9.150;2022-09-09T05:29:53;1.33;;;1.10;;
773;SDS011;370;48.810;9.150;2022-09-09T05:32:20;0.93;;;0.88;;
773;SDS011;370;48.810;9.150;2022-09-09T05:34:46;0.70;;;0.60;;
773;SDS011;370;48.810;9.150;2022-09-09T05:37:15;0.80;;;0.70;;
773;SDS011;370;48.810;9.150;2022-09-09T05:39:42;0.80;;;0.70;;
773;SDS011;370;48.810;9.150;2022-09-09T05:42:09;1.25;;;0.80;;
773;SDS011;370;48.810;9.150;2022-09-09T05:44:36;1.10;;;0.80;;
773;SDS011;370;48.810;9.150;2022-09-09T05:47:03;1.83;;;0.80;;
773;SDS011;370;48.810;9.150;2022-09-09T05:49:30;0.83;;;0.63;;
773;SDS011;370;48.810;9.150;2022-09-09T05:51:57;2.53;;;1.00;;
773;SDS011;370;48.810;9.150;2022-09-09T05:54:25;0.77;;;0.77;;
773;SDS011;370;48.810;9.150;2022-09-09T05:56:51;3.50;;;1.07;;
773;SDS011;370;48.810;9.150;2022-09-09T05:59:18;6.70;;;0.90;;
773;SDS011;370;48.810;9.150;2022-09-09T06:01:45;1.80;;;0.80;;
773;SDS011;370;48.810;9.150;2022-09-09T06:04:12;1.20;;;1.10;;
773;SDS011;370;48.810;9.150;2022-09-09T06:06:39;2.08;;;0.98;;
773;SDS011;370;48.810;9.150;2022-09-09T06:09:07;4.53;;;0.93;;
773;SDS011;370;48.810;9.150;2022-09-09T06:11:37;2.10;;;0.67;;
773;SDS011;370;48.810;9.150;2022-09-09T06:14:05;1.65;;;0.70;;
773;SDS011;370;48.810;9.150;2022-09-09T06:16:33;0.70;;;0.60;;
773;SDS011;370;48.810;9.150;2022-09-09T06:19:02;3.45;;;0.90;;
773;SDS011;370;48.810;9.150;2022-09-09T06:21:30;1.17;;;1.07;;
773;SDS011;370;48.810;9.150;2022-09-09T06:23:58;0.80;;;0.70;;
773;SDS011;370;48.810;9.150;2022-09-09T06:26:26;1.97;;;0.80;;
773;SDS011;370;48.810;9.150;2022-09-09T06:28:55;0.93;;;0.70;;
773;SDS011;370;48.810;9.150;2022-09-09T06:31:24;0.60;;;0.60;;
773;SDS011;370;48.810;9.150;2022-09-09T06:33:55;2.33;;;0.90;;
773;SDS011;370;48.810;9.150;2022-09-09T06:36:23;1.30;;;0.82;;
773;SDS011;370;48.810;9.150;2022-09-09T06:38:51;1.87;;;1.00;;
773;SDS011;370;48.810;9.150;2022-09-09T06:41:20;4.53;;;1.23;;
773;SDS011;370;48.810;9.150;2022-09-09T06:43:48;0.80;;;0.80;;
773;SDS011;370;48.810;9.150;2022-09-09T06:46:17;1.83;;;0.93;;
773;SDS011;370;48.810;9.150;2022-09-09T06:48:46;3.90;;;0.88;;
773;SDS011;370;48.810;9.150;2022-09-09T06:51:14;1.20;;;0.70;;
773;SDS011;370;48.810;9.150;2022-09-09T06:53:43;1.87;;;0.97;;
773;SDS011;370;48.810;9.150;2022-09-09T06:56:17;0.70;;;0.60;;
773;SDS011;370;48.810;9.150;2022-09-09T06:58:46;0.97;;;0.90;;
773;SDS011;370;48.810;9.150;2022-09-09T07:01:14;2.33;;;1.00;;
773;SDS011;370;48.810;9.150;2022-09-09T07:03:45;1.10;;;1.00;;
773;SDS011;370;48.810;9.150;2022-09-09T07:06:13;5.00;;;1.17;;
773;SDS011;370;48.810;9.150;2022-09-09T07:08:42;0.80;;;0.70;;
773;SDS011;370;48.810;9.150;2022-09-09T07:11:09;0.93;;;0.87;;
773;SDS011;370;48.810;9.150;2022-09-09T07:13:37;1.37;;;0.90;;
773;SDS011;370;48.810;9.150;2022-09-09T07:16:04;3.00;;;1.40;;
773;SDS011;370;48.810;9.150;2022-09-09T07:18:34;1.47;;;1.33;;
773;SDS011;370;48.810;9.150;2022-09-09T07:21:02;1.93;;;0.87;;
773;SDS011;370;48.810;9.150;2022-09-09T07:23:29;2.35;;;1.33;;
773;SDS011;370;48.810;9.150;2022-09-09T07:25:57;3.13;;;1.27;;
773;SDS011;370;48.810;9.150;2022-09-09T07:28:24;1.37;;;1.20;;
773;SDS011;370;48.810;9.150;2022-09-09T07:30:53;2.03;;;1.20;;
773;SDS011;370;48.810;9.150;2022-09-09T07:33:20;4.20;;;2.05;;
773;SDS011;370;48.810;9.150;2022-09-09T07:36:01;8.33;;;1.30;;
773;SDS011;370;48.810;9.150;2022-09-09T07:38:30;4.83;;;1.10;;
773;SDS011;370;48.810;9.150;2022-09-09T07:41:02;6.10;;;1.10;;
773;SDS011;370;48.810;9.150;2022-09-09T07:43:30;2.93;;;1.30;;
773;SDS011;370;48.810;9.150;2022-09-09T07:45:58;2.10;;;1.30;;
773;SDS011;370;48.810;9.150;2022-09-09T07:48:26;1.43;;;1.37;;
773;SDS011;370;48.810;9.150;2022-09-09T07:51:03;2.20;;;1.00;;
773;SDS011;370;48.810;9.150;2022-09-09T07:53:32;1.37;;;1.27;;
773;SDS011;370;48.810;9.150;2022-09-09T07:56:02;3.03;;;1.07;;
773;SDS011;370;48.810;9.150;2022-09-09T07:58:30;5.57;;;1.27;;
773;SDS011;370;48.810;9.150;2022-09-09T08:00:58;2.10;;;1.30;;
773;SDS011;370;48.810;9.150;2022-09-09T08:03:25;1.97;;;1.10;;
773;SDS011;370;48.810;9.150;2022-09-09T08:05:52;3.33;;;1.40;;
773;SDS011;370;48.810;9.150;2022-09-09T08:08:20;1.27;;;1.17;;
773;SDS011;370;48.810;9.150;2022-09-09T08:10:46;1.93;;;1.20;;
773;SDS011;370;48.810;9.150;2022-09-09T08:13:13;1.67;;;1.20;;
773;SDS011;370;48.810;9.150;2022-09-09T08:15:40;1.23;;;1.13;;
773;SDS011;370;48.810;9.150;2022-09-09T08:18:08;1.13;;;1.03;;
773;SDS011;370;48.810;9.150;2022-09-09T08:20:37;5.07;;;1.50;;
773;SDS011;370;48.810;9.150;2022-09-09T08:23:04;1.20;;;1.10;;
773;SDS011;370;48.810;9.150;2022-09-09T08:25:34;1.70;;;1.20;;
773;SDS011;370;48.810;9.150;2022-09-09T08:28:01;2.83;;;1.37;;
773;SDS011;370;48.810;9.150;2022-09-09T08:30:29;2.90;;;1.43;;
773;SDS011;370;48.810;9.150;2022-09-09T08:32:56;1.67;;;1.30;;
773;SDS011;370;48.810;9.150;2022-09-09T08:35:25;3.97;;;1.70;;
773;SDS011;370;48.810;9.150;2022-09-09T08:37:53;1.55;;;1.40;;
773;SDS011;370;48.810;9.150;2022-09-09T08:40:22;4.23;;;1.50;;
773;SDS011;370;48.810;9.150;2022-09-09T08:42:57;3.33;;;1.30;;
773;SDS011;370;48.810;9.150;2022-09-09T08:45:29;1.47;;;1.37;;
773;SDS011;370;48.810;9.150;2022-09-09T08:48:10;4.00;;;2.00;;
773;SDS011;370;48.810;9.150;2022-09-09T08:50:46;7.50;;;1.53;;
773;SDS011;370;48.810;9.150;2022-09-09T08:53:17;5.03;;;1.60;;
773;SDS011;370;48.810;9.150;2022-09-09T08:55:50;1.20;;;1.10;;
773;SDS011;370;48.810;9.150;2022-09-09T08:58:21;3.50;;;1.70;;
773;SDS011;370;48.810;9.150;2022-09-09T09:00:54;1.43;;;1.37;;
773;SDS011;370;48.810;9.150;2022-09-09T09:03:30;3.20;;;1.80;;
773;SDS011;370;48.810;9.150;2022-09-09T09:06:07;3.93;;;1.57;;
773;SDS011;370;48.810;9.150;2022-09-09T09:08:47;4.20;;;1.67;;
773;SDS011;370;48.810;9.150;2022-09-09T09:11:18;2.63;;;1.95;;
773;SDS011;370;48.810;9.150;2022-09-09T09:13:47;2.80;;;1.60;;
773;SDS011;370;48.810;9.150;2022-09-09T09:16:20;1.87;;;1.50;;
773;SDS011;370;48.810;9.150;2022-09-09T09:18:52;5.43;;;1.53;;
773;SDS011;370;48.810;9.150;2022-09-09T09:21:21;2.10;;;1.20;;
773;SDS011;370;48.810;9.150;2022-09-09T09:24:00;2.30;;;1.30;;
773;SDS011;370;48.810;9.150;2022-09-09T09:26:29;3.30;;;1.33;;
773;SDS011;370;48.810;9.150;2022-09-09T09:29:00;3.60;;;1.20;;
773;SDS011;370;48.810;9.150;2022-09-09T09:31:34;4.73;;;1.43;;
773;SDS011;370;48.810;9.150;2022-09-09T09:34:01;1.13;;;1.03;;
773;SDS011;370;48.810;9.150;2022-09-09T09:36:33;3.07;;;1.10;;
773;SDS011;370;48.810;9.150;2022-09-09T09:39:02;2.90;;;0.90;;
773;SDS011;370;48.810;9.150;2022-09-09T09:41:31;2.13;;;1.07;;
773;SDS011;370;48.810;9.150;2022-09-09T09:44:00;5.20;;;1.10;;
773;SDS011;370;48.810;9.150;2022-09-09T09:46:28;5.63;;;1.10;;
773;SDS011;370;48.810;9.150;2022-09-09T09:48:58;1.20;;;0.90;;
773;SDS011;370;48.810;9.150;2022-09-09T09:51:26;2.20;;;1.20;;
773;SDS011;370;48.810;9.150;2022-09-09T09:54:01;1.17;;;1.00;;
773;SDS011;370;48.810;9.150;2022-09-09T09:56:35;1.07;;;0.97;;
773;SDS011;370;48.810;9.150;2022-09-09T09:59:04;2.10;;;1.17;;
773;SDS011;370;48.810;9.150;2022-09-09T10:01:31;1.23;;;1.10;;
773;SDS011;370;48.810;9.150;2022-09-09T10:04:00;1.83;;;1.40;;
773;SDS011;370;48.810;9.150;2022-09-09T10:06:29;2.70;;;1.40;;
773;SDS011;370;48.810;9.150;2022-09-09T10:08:58;1.50;;;1.40;;
773;SDS011;370;48.810;9.150;2022-09-09T10:11:40;4.00;;;1.63;;
773;SDS011;370;48.810;9.150;2022-09-09T10:14:18;2.80;;;1.50;;
773;SDS011;370;48.810;9.150;2022-09-09T10:16:51;1.53;;;1.40;;
773;SDS011;370;48.810;9.150;2022-09-09T10:19:29;2.80;;;1.77;;
773;SDS011;370;48.810;9.150;2022-09-09T10:22:07;1.80;;;1.80;;
773;SDS011;370;48.810;9.150;2022-09-09T10:24:56;1.83;;;1.70;;
773;SDS011;370;48.810;9.150;2022-09-09T10:27:54;2.50;;;1.83;;
773;SDS011;370;48.810;9.150;2022-09-09T10:30:46;2.00;;;1.90;;
773;SDS011;370;48.810;9.150;2022-09-09T10:33:25;3.87;;;2.20;;
773;SDS011;370;48.810;9.150;2022-09-09T10:36:00;1.73;;;1.63;;
773;SDS011;370;48.810;9.150;2022-09-09T10:38:37;1.80;;;1.70;;
773;SDS011;370;48.810;9.150;2022-09-09T10:41:13;2.30;;;1.80;;
773;SDS011;370;48.810;9.150;2022-09-09T10:46:43;1.50;;;1.40;;
773;SDS011;370;48.810;9.150;2022-09-09T10:49:25;3.27;;;1.50;;
773;SDS011;370;48.810;9.150;2022-09-09T10:52:05;2.15;;;1.30;;
773;SDS011;370;48.810;9.150;2022-09-09T10:54:43;2.40;;;1.35;;
773;SDS011;370;48.810;9.150;2022-09-09T10:57:17;2.00;;;1.30;;
773;SDS011;370;48.810;9.150;2022-09-09T10:59:52;3.60;;;1.53;;
773;SDS011;370;48.810;9.150;2022-09-09T11:02:25;5.20;;;1.77;;
773;SDS011;370;48.810;9.150;2022-09-09T11:04:54;1.80;;;1.70;;
773;SDS011;370;48.810;9.150;2022-09-09T11:07:26;5.93;;;1.40;;
773;SDS011;370;48.810;9.150;2022-09-09T11:09:59;1.50;;;1.40;;
773;SDS011;370;48.810;9.150;2022-09-09T11:12:31;1.30;;;1.20;;
773;SDS011;370;48.810;9.150;2022-09-09T11:15:04;1.83;;;1.30;;
773;SDS011;370;48.810;9.150;2022-09-09T11:17:38;1.10;;;0.90;;
773;SDS011;370;48.810;9.150;2022-09-09T11:20:11;3.27;;;1.33;;
773;SDS011;370;48.810;9.150;2022-09-09T11:22:39;1.60;;;1.03;;
773;SDS011;370;48.810;9.150;2022-09-09T11:25:14;3.83;;;1.03;;
773;SDS011;370;48.810;9.150;2022-09-09T11:27:48;7.50;;;1.17;;
773;SDS011;370;48.810;9.150;2022-09-09T11:30:27;1.10;;;1.00;;
773;SDS011;370;48.810;9.150;2022-09-09T11:36:09;1.17;;;0.90;;
773;SDS011;370;48.810;9.150;2022-09-09T11:38:49;1.57;;;0.70;;
773;SDS011;370;48.810;9.150;2022-09-09T11:41:17;0.80;;;0.73;;
773;SDS011;370;48.810;9.150;2022-09-09T11:43:47;1.83;;;1.00;;
773;SDS011;370;48.810;9.150;2022-09-09T11:46:16;1.07;;;0.90;;
773;SDS011;370;48.810;9.150;2022-09-09T11:48:56;2.47;;;0.80;;
773;SDS011;370;48.810;9.150;2022-09-09T11:51:26;1.33;;;0.80;;
773;SDS011;370;48.810;9.150;2022-09-09T11:53:55;3.80;;;0.80;;
773;SDS011;370;48.810;9.150;2022-09-09T11:56:24;7.50;;;1.13;;
773;SDS011;370;48.810;9.150;2022-09-09T11:58:54;1.27;;;0.80;;
773;SDS011;370;48.810;9.150;2022-09-09T12:01:27;3.53;;;1.00;;
773;SDS011;370;48.810;9.150;2022-09-09T12:06:53;0.80;;;0.73;;
773;SDS011;370;48.810;9.150;2022-09-09T12:09:24;0.93;;;0.83;;
773;SDS011;370;48.810;9.150;2022-09-09T12:12:04;1.80;;;0.90;;
773;SDS011;370;48.810;9.150;2022-09-09T12:14:35;0.90;;;0.80;;
773;SDS011;370;48.810;9.150;2022-09-09T12:17:10;1.80;;;1.00;;
773;SDS011;370;48.810;9.150;2022-09-09T12:19:47;1.15;;;1.05;;
773;SDS011;370;48.810;9.150;2022-09-09T12:22:16;1.20;;;1.10;;
773;SDS011;370;48.810;9.150;2022-09-09T12:24:53;1.10;;;1.00;;
773;SDS011;370;48.810;9.150;2022-09-09T12:27:26;1.30;;;1.20;;
773;SDS011;370;48.810;9.150;2022-09-09T12:30:00;3.50;;;1.53;;
773;SDS011;370;48.810;9.150;2022-09-09T12:32:29;2.60;;;1.60;;
773;SDS011;370;48.810;9.150;2022-09-09T12:34:58;1.93;;;1.60;;
773;SDS011;370;48.810;9.150;2022-09-09T12:37:27;4.90;;;1.60;;
773;SDS011;370;48.810;9.150;2022-09-09T12:39:59;1.53;;;1.20;;
773;SDS011;370;48.810;9.150;2022-09-09T12:42:29;1.13;;;1.00;;
773;SDS011;370;48.810;9.150;2022-09-09T12:44:58;6.33;;;1.20;;
773;SDS011;370;48.810;9.150;2022-09-09T12:47:38;1.33;;;1.23;;
773;SDS011;370;48.810;9.150;2022-09-09T12:50:16;3.77;;;1.20;;
773;SDS011;370;48.810;9.150;2022-09-09T12:52:47;1.30;;;1.20;;
773;SDS011;370;48.810;9.150;2022-09-09T12:55:16;1.10;;;1.00;;
773;SDS011;370;48.810;9.150;2022-09-09T12:57:45;1.20;;;1.10;;
773;SDS011;370;48.810;9.150;2022-09-09T13:00:16;1.20;;;1.10;;
773;SDS011;370;48.810;9.150;2022-09-09T13:02:46;1.53;;;1.20;;
773;SDS011;370;48.810;9.150;2022-09-09T13:05:18;1.47;;;1.37;;
773;SDS011;370;48.810;9.150;2022-09-09T13:08:13;1.23;;;1.17;;
773;SDS011;370;48.810;9.150;2022-09-09T13:10:43;4.00;;;1.60;;
773;SDS011;370;48.810;9.150;2022-09-09T13:13:13;1.50;;;1.47;;
773;SDS011;370;48.810;9.150;2022-09-09T13:15:47;1.60;;;1.40;;
773;SDS011;370;48.810;9.150;2022-09-09T13:18:16;1.90;;;1.50;;
773;SDS011;370;48.810;9.150;2022-09-09T13:20:48;1.30;;;1.20;;
773;SDS011;370;48.810;9.150;2022-09-09T13:23:16;3.10;;;1.50;;
773;SDS011;370;48.810;9.150;2022-09-09T13:25:52;1.90;;;1.50;;
773;SDS011;370;48.810;9.150;2022-09-09T13:28:21;1.90;;;1.13;;
773;SDS011;370;48.810;9.150;2022-09-09T13:30:55;1.53;;;1.20;;
773;SDS011;370;48.810;9.150;2022-09-09T13:33:29;1.50;;;1.40;;
773;SDS011;370;48.810;9.150;2022-09-09T13:35:59;1.55;;;1.50;;
773;SDS011;370;48.810;9.150;2022-09-09T13:38:30;1.73;;;1.57;;
773;SDS011;370;48.810;9.150;2022-09-09T13:41:02;1.73;;;1.20;;
773;SDS011;370;48.810;9.150;2022-09-09T13:43:31;1.40;;;1.30;;
773;SDS011;370;48.810;9.150;2022-09-09T13:46:01;1.37;;;1.30;;
773;SDS011;370;48.810;9.150;2022-09-09T13:48:53;1.27;;;1.17;;
773;SDS011;370;48.810;9.150;2022-09-09T13:51:26;1.37;;;1.20;;
773;SDS011;370;48.810;9.150;2022-09-09T13:53:58;1.30;;;1.20;;
773;SDS011;370;48.810;9.150;2022-09-09T13:56:25;2.03;;;1.20;;
773;SDS011;370;48.810;9.150;2022-09-09T13:58:52;2.00;;;1.30;;
773;SDS011;370;48.810;9.150;2022-09-09T14:01:19;1.07;;;0.97;;
773;SDS011;370;48.810;9.150;2022-09-09T14:03:46;2.20;;;0.90;;
773;SDS011;370;48.810;9.150;2022-09-09T14:06:12;0.93;;;0.82;;
773;SDS011;370;48.810;9.150;2022-09-09T14:08:40;2.50;;;1.20;;
773;SDS011;370;48.810;9.150;2022-09-09T14:11:08;3.97;;;1.00;;
773;SDS011;370;48.810;9.150;2022-09-09T14:13:38;1.05;;;1.00;;
773;SDS011;370;48.810;9.150;2022-09-09T14:16:13;1.03;;;0.93;;
773;SDS011;370;48.810;9.150;2022-09-09T14:18:41;1.13;;;1.10;;
773;SDS011;370;48.810;9.150;2022-09-09T14:21:09;3.60;;;1.43;;
773;SDS011;370;48.810;9.150;2022-09-09T14:23:36;1.00;;;0.90;;
773;SDS011;370;48.810;9.150;2022-09-09T14:26:04;1.33;;;1.10;;
773;SDS011;370;48.810;9.150;2022-09-09T14:28:32;2.70;;;1.20;;
773;SDS011;370;48.810;9.150;2022-09-09T14:30:59;1.30;;;1.20;;
773;SDS011;370;48.810;9.150;2022-09-09T14:33:26;1.20;;;1.10;;
773;SDS011;370;48.810;9.150;2022-09-09T14:35:55;1.57;;;1.00;;
773;SDS011;370;48.810;9.150;2022-09-09T14:38:23;1.20;;;1.10;;
773;SDS011;370;48.810;9.150;2022-09-09T14:40:49;2.00;;;1.00;;
773;SDS011;370;48.810;9.150;2022-09-09T14:43:18;2.73;;;1.10;;
773;SDS011;370;48.810;9.150;2022-09-09T14:45:45;1.43;;;1.33;;
773;SDS011;370;48.810;9.150;2022-09-09T14:48:12;1.37;;;0.90;;
773;SDS011;370;48.810;9.150;2022-09-09T14:50:39;2.63;;;1.00;;
773;SDS011;370;48.810;9.150;2022-09-09T14:53:07;1.27;;;1.00;;
773;SDS011;370;48.810;9.150;2022-09-09T14:55:35;2.60;;;0.90;;
773;SDS011;370;48.810;9.150;2022-09-09T14:58:02;1.45;;;1.00;;
773;SDS011;370;48.810;9.150;2022-09-09T15:00:30;1.13;;;1.07;;
773;SDS011;370;48.810;9.150;2022-09-09T15:02:56;1.23;;;1.00;;
773;SDS011;370;48.810;9.150;2022-09-09T15:05:23;0.90;;;0.80;;
773;SDS011;370;48.810;9.150;2022-09-09T15:07:50;2.10;;;0.80;;
773;SDS011;370;48.810;9.150;2022-09-09T15:10:17;3.47;;;1.10;;
773;SDS011;370;48.810;9.150;2022-09-09T15:12:44;2.33;;;0.73;;
773;SDS011;370;48.810;9.150;2022-09-09T15:15:10;0.70;;;0.60;;
773;SDS011;370;48.810;9.150;2022-09-09T15:17:39;0.90;;;0.80;;
773;SDS011;370;48.810;9.150;2022-09-09T15:20:07;0.80;;;0.70;;
773;SDS011;370;48.810;9.150;2022-09-09T15:28:52;9.90;;;1.20;;
773;SDS011;370;48.810;9.150;2022-09-09T15:31:20;0.80;;;0.70;;
773;SDS011;370;48.810;9.150;2022-09-09T15:33:50;0.80;;;0.70;;
773;SDS011;370;48.810;9.150;2022-09-09T15:36:26;0.80;;;0.70;;
773;SDS011;370;48.810;9.150;2022-09-09T15:38:54;1.77;;;0.98;;
773;SDS011;370;48.810;9.150;2022-09-09T15:41:22;2.50;;;0.70;;
773;SDS011;370;48.810;9.150;2022-09-09T15:43:50;1.70;;;0.80;;
773;SDS011;370;48.810;9.150;2022-09-09T15:46:22;1.17;;;0.87;;
773;SDS011;370;48.810;9.150;2022-09-09T15:48:53;1.13;;;0.87;;
773;SDS011;370;48.810;9.150;2022-09-09T15:51:25;1.27;;;0.80;;
773;SDS011;370;48.810;9.150;2022-09-09T15:53:56;2.30;;;0.80;;
773;SDS011;370;48.810;9.150;2022-09-09T15:56:24;1.43;;;0.90;;
773;SDS011;370;48.810;9.150;2022-09-09T15:58:52;0.87;;;0.80;;
773;SDS011;370;48.810;9.150;2022-09-09T16:01:19;3.70;;;0.87;;
773;SDS011;370;48.810;9.150;2022-09-09T16:03:46;0.73;;;0.70;;
773;SDS011;370;48.810;9.150;2022-09-09T16:06:16;2.30;;;0.77;;
773;SDS011;370;48.810;9.150;2022-09-09T16:08:46;0.87;;;0.77;;
773;SDS011;370;48.810;9.150;2022-09-09T16:11:16;1.43;;;1.10;;
773;SDS011;370;48.810;9.150;2022-09-09T16:13:45;9.93;;;1.07;;
773;SDS011;370;48.810;9.150;2022-09-09T16:16:14;0.80;;;0.70;;
773;SDS011;370;48.810;9.150;2022-09-09T16:18:42;1.40;;;0.80;;
773;SDS011;370;48.810;9.150;2022-09-09T16:21:12;6.10;;;0.90;;
773;SDS011;370;48.810;9.150;2022-09-09T16:23:42;4.35;;;1.20;;